sensor_id;sensor_type;location;lat;lon;timestamp;temperature;humidity
8947;DHT22;4508;48.790;9.028;2022-09-17T00:01:36;9.40;99.90
8947;DHT22;4508;48.790;9.028;2022-09-17T00:04:02;9.30;99.90
8947;DHT22;4508;48.790;9.028;2022-09-17T00:06:31;9.20;99.90
8947;DHT22;4508;48.790;9.028;2022-09-17T00:08:57;9.20;99.90
8947;DHT22;4508;48.790;9.028;2022-09-17T00:11:28;9.20;99.90
8947;DHT22;4508;48.790;9.028;2022-09-17T00:13:57;9.10;99.90
8947;DHT22;4508;48.790;9.028;2022-09-17T00:16:26;9.10;99.90
8947;DHT22;4508;48.790;9.028;2022-09-17T00:18:55;9.10;99.90
8947;DHT22;4508;48.790;9.028;2022-09-17T00:21:22;9.10;99.90
8947;DHT22;4508;48.790;9.028;2022-09-17T00:23:52;9.20;99.90
8947;DHT22;4508;48.790;9.028;2022-09-17T00:26:19;9.40;99.90
8947;DHT22;4508;48.790;9.028;2022-09-17T00:28:48;9.40;99.90
8947;DHT22;4508;48.790;9.028;2022-09-17T00:31:15;9.30;99.90
8947;DHT22;4508;48.790;9.028;2022-09-17T00:33:42;9.40;99.90
8947;DHT22;4508;48.790;9.028;2022-09-17T00:36:10;9.40;99.90
8947;DHT22;4508;48.790;9.028;2022-09-17T00:38:37;9.30;99.90
8947;DHT22;4508;48.790;9.028;2022-09-17T00:41:04;9.20;99.90
8947;DHT22;4508;48.790;9.028;2022-09-17T00:43:34;9.40;99.90
8947;DHT22;4508;48.790;9.028;2022-09-17T00:46:02;9.40;99.90
8947;DHT22;4508;48.790;9.028;2022-09-17T00:48:29;9.40;99.90
8947;DHT22;4508;48.790;9.028;2022-09-17T00:50:56;9.40;99.90
8947;DHT22;4508;48.790;9.028;2022-09-17T00:53:27;9.10;99.90
8947;DHT22;4508;48.790;9.028;2022-09-17T00:56:00;9.30;99.90
8947;DHT22;4508;48.790;9.028;2022-09-17T00:58:29;9.30;99.90
8947;DHT22;4508;48.790;9.028;2022-09-17T01:00:56;9.30;99.90
8947;DHT22;4508;48.790;9.028;2022-09-17T01:03:24;9.30;99.90
8947;DHT22;4508;48.790;9.028;2022-09-17T01:05:57;9.30;99.90
8947;DHT22;4508;48.790;9.028;2022-09-17T01:08:35;9.30;99.90
8947;DHT22;4508;48.790;9.028;2022-09-17T01:11:30;9.20;99.90
8947;DHT22;4508;48.790;9.028;2022-09-17T01:14:09;9.30;99.90
8947;DHT22;4508;48.790;9.028;2022-09-17T01:16:46;9.20;99.90
8947;DHT22;4508;48.790;9.028;2022-09-17T01:19:31;9.20;99.90
8947;DHT22;4508;48.790;9.028;2022-09-17T01:22:04;9.10;99.90
8947;DHT22;4508;48.790;9.028;2022-09-17T01:24:46;9.00;99.90
8947;DHT22;4508;48.790;9.028;2022-09-17T01:27:44;9.10;99.90
8947;DHT22;4508;48.790;9.028;2022-09-17T01:30:18;9.00;99.90
8947;DHT22;4508;48.790;9.028;2022-09-17T01:32:51;9.10;99.90
8947;DHT22;4508;48.790;9.028;2022-09-17T01:35:26;9.30;99.90
8947;DHT22;4508;48.790;9.028;2022-09-17T01:38:01;9.10;99.90
8947;DHT22;4508;48.790;9.028;2022-09-17T01:40:34;9.10;99.90
8947;DHT22;4508;48.790;9.028;2022-09-17T01:43:05;9.10;99.90
8947;DHT22;4508;48.790;9.028;2022-09-17T01:45:36;9.00;99.90
8947;DHT22;4508;48.790;9.028;2022-09-17T01:48:08;9.10;99.90
8947;DHT22;4508;48.790;9.028;2022-09-17T01:50:39;9.20;99.90
8947;DHT22;4508;48.790;9.028;2022-09-17T01:53:08;9.20;99.90
8947;DHT22;4508;48.790;9.028;2022-09-17T01:55:38;9.10;99.90
8947;DHT22;4508;48.790;9.028;2022-09-17T01:58:10;9.10;99.90
8947;DHT22;4508;48.790;9.028;2022-09-17T02:00:39;9.30;99.90
8947;DHT22;4508;48.790;9.028;2022-09-17T02:03:12;9.30;99.90
8947;DHT22;4508;48.790;9.028;2022-09-17T02:05:42;9.10;99.90
8947;DHT22;4508;48.790;9.028;2022-09-17T02:08:13;9.20;99.90
8947;DHT22;4508;48.790;9.028;2022-09-17T02:10:43;9.20;99.90
8947;DHT22;4508;48.790;9.028;2022-09-17T02:13:15;9.20;99.90
8947;DHT22;4508;48.790;9.028;2022-09-17T02:15:46;9.20;99.90
8947;DHT22;4508;48.790;9.028;2022-09-17T02:18:21;9.20;99.90
8947;DHT22;4508;48.790;9.028;2022-09-17T02:20:53;9.20;99.90
8947;DHT22;4508;48.790;9.028;2022-09-17T02:23:26;9.20;99.90
8947;DHT22;4508;48.790;9.028;2022-09-17T02:25:58;9.20;99.90
8947;DHT22;4508;48.790;9.028;2022-09-17T02:31:51;9.20;99.90
8947;DHT22;4508;48.790;9.028;2022-09-17T02:34:19;9.20;99.90
8947;DHT22;4508;48.790;9.028;2022-09-17T02:36:47;9.20;99.90
8947;DHT22;4508;48.790;9.028;2022-09-17T02:39:13;9.30;99.90
8947;DHT22;4508;48.790;9.028;2022-09-17T02:41:48;9.20;99.90
8947;DHT22;4508;48.790;9.028;2022-09-17T02:44:25;9.20;99.90
8947;DHT22;4508;48.790;9.028;2022-09-17T02:47:13;9.20;99.90
8947;DHT22;4508;48.790;9.028;2022-09-17T02:49:57;9.20;99.90
8947;DHT22;4508;48.790;9.028;2022-09-17T02:52:33;9.20;99.90
8947;DHT22;4508;48.790;9.028;2022-09-17T02:55:11;9.20;99.90
8947;DHT22;4508;48.790;9.028;2022-09-17T02:57:45;9.10;99.90
8947;DHT22;4508;48.790;9.028;2022-09-17T03:00:15;9.00;99.90
8947;DHT22;4508;48.790;9.028;2022-09-17T03:02:44;9.10;99.90
8947;DHT22;4508;48.790;9.028;2022-09-17T03:05:17;8.80;99.90
8947;DHT22;4508;48.790;9.028;2022-09-17T03:07:44;8.80;99.90
8947;DHT22;4508;48.790;9.028;2022-09-17T03:10:11;8.70;99.90
8947;DHT22;4508;48.790;9.028;2022-09-17T03:12:38;8.70;99.90
8947;DHT22;4508;48.790;9.028;2022-09-17T03:15:06;8.70;99.90
8947;DHT22;4508;48.790;9.028;2022-09-17T03:17:33;8.70;99.90
8947;DHT22;4508;48.790;9.028;2022-09-17T03:20:01;8.70;99.90
8947;DHT22;4508;48.790;9.028;2022-09-17T03:22:29;8.70;99.90
8947;DHT22;4508;48.790;9.028;2022-09-17T03:24:55;8.70;99.90
8947;DHT22;4508;48.790;9.028;2022-09-17T03:27:22;8.70;99.90
8947;DHT22;4508;48.790;9.028;2022-09-17T03:29:49;8.70;99.90
8947;DHT22;4508;48.790;9.028;2022-09-17T03:32:15;8.70;99.90
8947;DHT22;4508;48.790;9.028;2022-09-17T03:34:42;8.70;99.90
8947;DHT22;4508;48.790;9.028;2022-09-17T03:37:11;8.70;99.90
8947;DHT22;4508;48.790;9.028;2022-09-17T03:39:39;8.70;99.90
8947;DHT22;4508;48.790;9.028;2022-09-17T03:42:06;8.60;99.90
8947;DHT22;4508;48.790;9.028;2022-09-17T03:44:32;8.50;99.90
8947;DHT22;4508;48.790;9.028;2022-09-17T03:46:59;8.50;99.90
8947;DHT22;4508;48.790;9.028;2022-09-17T03:49:26;8.50;99.90
8947;DHT22;4508;48.790;9.028;2022-09-17T03:51:52;8.40;99.90
8947;DHT22;4508;48.790;9.028;2022-09-17T03:54:19;8.40;99.90
8947;DHT22;4508;48.790;9.028;2022-09-17T03:56:47;8.30;99.90
8947;DHT22;4508;48.790;9.028;2022-09-17T03:59:14;8.30;99.90
8947;DHT22;4508;48.790;9.028;2022-09-17T04:01:41;8.40;99.90
8947;DHT22;4508;48.790;9.028;2022-09-17T04:04:08;8.50;99.90
8947;DHT22;4508;48.790;9.028;2022-09-17T04:06:35;8.50;99.90
8947;DHT22;4508;48.790;9.028;2022-09-17T04:09:01;8.60;99.90
8947;DHT22;4508;48.790;9.028;2022-09-17T04:11:29;8.50;99.90
8947;DHT22;4508;48.790;9.028;2022-09-17T04:13:57;8.60;99.90
8947;DHT22;4508;48.790;9.028;2022-09-17T04:16:24;8.60;99.90
8947;DHT22;4508;48.790;9.028;2022-09-17T04:18:51;8.50;99.90
8947;DHT22;4508;48.790;9.028;2022-09-17T04:21:17;8.40;99.90
8947;DHT22;4508;48.790;9.028;2022-09-17T04:23:44;8.30;99.90
8947;DHT22;4508;48.790;9.028;2022-09-17T04:26:11;8.20;99.90
8947;DHT22;4508;48.790;9.028;2022-09-17T04:28:38;8.10;99.90
8947;DHT22;4508;48.790;9.028;2022-09-17T04:31:06;8.20;99.90
8947;DHT22;4508;48.790;9.028;2022-09-17T04:33:33;8.10;99.90
8947;DHT22;4508;48.790;9.028;2022-09-17T04:35:59;8.10;99.90
8947;DHT22;4508;48.790;9.028;2022-09-17T04:38:26;8.10;99.90
8947;DHT22;4508;48.790;9.028;2022-09-17T04:40:52;8.00;99.90
8947;DHT22;4508;48.790;9.028;2022-09-17T04:43:21;8.00;99.90
8947;DHT22;4508;48.790;9.028;2022-09-17T04:45:48;8.00;99.90
8947;DHT22;4508;48.790;9.028;2022-09-17T04:48:17;8.00;99.90
8947;DHT22;4508;48.790;9.028;2022-09-17T04:50:43;8.10;99.90
8947;DHT22;4508;48.790;9.028;2022-09-17T04:53:10;8.50;99.90
8947;DHT22;4508;48.790;9.028;2022-09-17T04:55:37;8.30;99.90
8947;DHT22;4508;48.790;9.028;2022-09-17T04:58:05;8.40;99.90
8947;DHT22;4508;48.790;9.028;2022-09-17T05:00:31;8.40;99.90
8947;DHT22;4508;48.790;9.028;2022-09-17T05:02:59;8.50;99.90
8947;DHT22;4508;48.790;9.028;2022-09-17T05:05:27;8.50;99.90
8947;DHT22;4508;48.790;9.028;2022-09-17T05:07:54;8.40;99.90
8947;DHT22;4508;48.790;9.028;2022-09-17T05:10:22;8.40;99.90
8947;DHT22;4508;48.790;9.028;2022-09-17T05:12:49;8.40;99.90
8947;DHT22;4508;48.790;9.028;2022-09-17T05:15:16;8.40;99.90
8947;DHT22;4508;48.790;9.028;2022-09-17T05:17:44;8.40;99.90
8947;DHT22;4508;48.790;9.028;2022-09-17T05:20:11;8.50;99.90
8947;DHT22;4508;48.790;9.028;2022-09-17T05:22:44;8.50;99.90
8947;DHT22;4508;48.790;9.028;2022-09-17T05:25:11;8.50;99.90
8947;DHT22;4508;48.790;9.028;2022-09-17T05:27:38;8.60;99.90
8947;DHT22;4508;48.790;9.028;2022-09-17T05:30:06;8.50;99.90
8947;DHT22;4508;48.790;9.028;2022-09-17T05:32:33;8.60;99.90
8947;DHT22;4508;48.790;9.028;2022-09-17T05:35:00;8.50;99.90
8947;DHT22;4508;48.790;9.028;2022-09-17T05:37:27;8.40;99.90
8947;DHT22;4508;48.790;9.028;2022-09-17T05:39:55;8.50;99.90
8947;DHT22;4508;48.790;9.028;2022-09-17T05:42:22;8.40;99.90
8947;DHT22;4508;48.790;9.028;2022-09-17T05:44:48;8.80;99.90
8947;DHT22;4508;48.790;9.028;2022-09-17T05:47:15;8.90;99.90
8947;DHT22;4508;48.790;9.028;2022-09-17T05:49:42;9.10;99.90
8947;DHT22;4508;48.790;9.028;2022-09-17T05:52:08;9.30;99.90
8947;DHT22;4508;48.790;9.028;2022-09-17T05:54:35;9.80;99.90
8947;DHT22;4508;48.790;9.028;2022-09-17T05:57:04;10.40;99.90
8947;DHT22;4508;48.790;9.028;2022-09-17T05:59:31;10.90;99.90
8947;DHT22;4508;48.790;9.028;2022-09-17T06:01:58;11.40;99.90
8947;DHT22;4508;48.790;9.028;2022-09-17T06:04:24;11.50;99.90
8947;DHT22;4508;48.790;9.028;2022-09-17T06:06:51;12.20;99.90
8947;DHT22;4508;48.790;9.028;2022-09-17T06:09:18;11.90;99.90
8947;DHT22;4508;48.790;9.028;2022-09-17T06:11:45;11.90;99.90
8947;DHT22;4508;48.790;9.028;2022-09-17T06:14:13;11.10;99.90
8947;DHT22;4508;48.790;9.028;2022-09-17T06:16:40;10.40;99.90
8947;DHT22;4508;48.790;9.028;2022-09-17T06:19:07;10.00;99.90
8947;DHT22;4508;48.790;9.028;2022-09-17T06:21:34;9.90;99.90
8947;DHT22;4508;48.790;9.028;2022-09-17T06:24:01;10.00;99.90
8947;DHT22;4508;48.790;9.028;2022-09-17T06:26:28;9.70;99.90
8947;DHT22;4508;48.790;9.028;2022-09-17T06:28:55;9.60;99.90
8947;DHT22;4508;48.790;9.028;2022-09-17T06:31:25;9.50;99.90
8947;DHT22;4508;48.790;9.028;2022-09-17T06:33:52;9.40;99.90
8947;DHT22;4508;48.790;9.028;2022-09-17T06:36:18;9.50;99.90
8947;DHT22;4508;48.790;9.028;2022-09-17T06:38:45;9.50;99.90
8947;DHT22;4508;48.790;9.028;2022-09-17T06:41:12;9.40;99.90
8947;DHT22;4508;48.790;9.028;2022-09-17T06:43:41;9.60;99.90
8947;DHT22;4508;48.790;9.028;2022-09-17T06:46:08;9.60;99.90
8947;DHT22;4508;48.790;9.028;2022-09-17T06:48:37;9.60;99.90
8947;DHT22;4508;48.790;9.028;2022-09-17T06:51:05;9.50;99.90
8947;DHT22;4508;48.790;9.028;2022-09-17T06:53:33;9.40;99.90
8947;DHT22;4508;48.790;9.028;2022-09-17T06:56:01;9.20;99.90
8947;DHT22;4508;48.790;9.028;2022-09-17T06:58:28;9.20;99.90
8947;DHT22;4508;48.790;9.028;2022-09-17T07:00:57;9.30;99.90
8947;DHT22;4508;48.790;9.028;2022-09-17T07:03:24;9.20;99.90
8947;DHT22;4508;48.790;9.028;2022-09-17T07:05:52;9.20;99.90
8947;DHT22;4508;48.790;9.028;2022-09-17T07:08:19;9.10;99.90
8947;DHT22;4508;48.790;9.028;2022-09-17T07:10:46;9.00;99.90
8947;DHT22;4508;48.790;9.028;2022-09-17T07:13:13;8.90;99.90
8947;DHT22;4508;48.790;9.028;2022-09-17T07:15:39;9.00;99.90
8947;DHT22;4508;48.790;9.028;2022-09-17T07:18:07;9.00;99.90
8947;DHT22;4508;48.790;9.028;2022-09-17T07:20:34;9.20;99.90
8947;DHT22;4508;48.790;9.028;2022-09-17T07:23:04;9.20;99.90
8947;DHT22;4508;48.790;9.028;2022-09-17T07:25:31;9.20;99.90
8947;DHT22;4508;48.790;9.028;2022-09-17T07:27:57;9.10;99.90
8947;DHT22;4508;48.790;9.028;2022-09-17T07:30:24;9.00;99.90
8947;DHT22;4508;48.790;9.028;2022-09-17T07:32:51;9.10;99.90
8947;DHT22;4508;48.790;9.028;2022-09-17T07:35:17;8.90;99.90
8947;DHT22;4508;48.790;9.028;2022-09-17T07:37:44;9.00;99.90
8947;DHT22;4508;48.790;9.028;2022-09-17T07:40:13;8.90;99.90
8947;DHT22;4508;48.790;9.028;2022-09-17T07:42:40;9.00;99.90
8947;DHT22;4508;48.790;9.028;2022-09-17T07:45:07;8.90;99.90
8947;DHT22;4508;48.790;9.028;2022-09-17T07:47:37;9.00;99.90
8947;DHT22;4508;48.790;9.028;2022-09-17T07:50:05;9.10;99.90
8947;DHT22;4508;48.790;9.028;2022-09-17T07:52:32;9.00;99.90
8947;DHT22;4508;48.790;9.028;2022-09-17T07:54:59;9.10;99.90
8947;DHT22;4508;48.790;9.028;2022-09-17T07:57:27;9.10;99.90
8947;DHT22;4508;48.790;9.028;2022-09-17T07:59:53;9.10;99.90
8947;DHT22;4508;48.790;9.028;2022-09-17T08:02:20;9.20;99.90
8947;DHT22;4508;48.790;9.028;2022-09-17T08:04:47;9.20;99.90
8947;DHT22;4508;48.790;9.028;2022-09-17T08:07:13;9.40;99.90
8947;DHT22;4508;48.790;9.028;2022-09-17T08:09:40;9.50;99.90
8947;DHT22;4508;48.790;9.028;2022-09-17T08:12:07;9.50;99.90
8947;DHT22;4508;48.790;9.028;2022-09-17T08:14:35;9.40;99.90
8947;DHT22;4508;48.790;9.028;2022-09-17T08:17:02;9.40;99.90
8947;DHT22;4508;48.790;9.028;2022-09-17T08:19:30;9.50;99.90
8947;DHT22;4508;48.790;9.028;2022-09-17T08:21:57;9.50;99.90
8947;DHT22;4508;48.790;9.028;2022-09-17T08:24:23;9.60;99.90
8947;DHT22;4508;48.790;9.028;2022-09-17T08:26:50;9.80;99.90
8947;DHT22;4508;48.790;9.028;2022-09-17T08:29:17;9.80;99.90
8947;DHT22;4508;48.790;9.028;2022-09-17T08:31:45;9.90;99.90
8947;DHT22;4508;48.790;9.028;2022-09-17T08:34:12;9.90;99.90
8947;DHT22;4508;48.790;9.028;2022-09-17T08:36:39;9.90;99.90
8947;DHT22;4508;48.790;9.028;2022-09-17T08:39:06;9.90;99.90
8947;DHT22;4508;48.790;9.028;2022-09-17T08:41:50;10.00;99.90
8947;DHT22;4508;48.790;9.028;2022-09-17T08:44:24;10.40;99.90
8947;DHT22;4508;48.790;9.028;2022-09-17T08:46:58;10.80;99.90
8947;DHT22;4508;48.790;9.028;2022-09-17T08:49:33;11.10;99.90
8947;DHT22;4508;48.790;9.028;2022-09-17T08:52:30;11.20;99.90
8947;DHT22;4508;48.790;9.028;2022-09-17T08:55:05;11.60;99.90
8947;DHT22;4508;48.790;9.028;2022-09-17T08:57:38;11.70;99.90
8947;DHT22;4508;48.790;9.028;2022-09-17T09:00:10;11.60;99.90
8947;DHT22;4508;48.790;9.028;2022-09-17T09:02:49;11.20;99.90
8947;DHT22;4508;48.790;9.028;2022-09-17T09:05:24;11.20;99.90
8947;DHT22;4508;48.790;9.028;2022-09-17T09:07:56;11.30;99.90
8947;DHT22;4508;48.790;9.028;2022-09-17T09:10:28;11.40;99.90
8947;DHT22;4508;48.790;9.028;2022-09-17T09:12:58;11.30;99.90
8947;DHT22;4508;48.790;9.028;2022-09-17T09:15:32;11.40;99.90
8947;DHT22;4508;48.790;9.028;2022-09-17T09:18:12;11.40;99.90
8947;DHT22;4508;48.790;9.028;2022-09-17T09:20:48;12.10;99.90
8947;DHT22;4508;48.790;9.028;2022-09-17T09:23:18;12.20;99.90
8947;DHT22;4508;48.790;9.028;2022-09-17T09:25:54;11.90;99.90
8947;DHT22;4508;48.790;9.028;2022-09-17T09:28:40;11.90;99.90
8947;DHT22;4508;48.790;9.028;2022-09-17T09:31:19;12.10;99.90
8947;DHT22;4508;48.790;9.028;2022-09-17T09:33:52;12.10;99.90
8947;DHT22;4508;48.790;9.028;2022-09-17T09:36:19;12.10;99.90
8947;DHT22;4508;48.790;9.028;2022-09-17T09:38:51;12.00;99.90
8947;DHT22;4508;48.790;9.028;2022-09-17T09:41:25;12.10;99.90
8947;DHT22;4508;48.790;9.028;2022-09-17T09:43:59;12.50;99.90
8947;DHT22;4508;48.790;9.028;2022-09-17T09:46:43;12.80;99.90
8947;DHT22;4508;48.790;9.028;2022-09-17T09:49:24;12.60;99.90
8947;DHT22;4508;48.790;9.028;2022-09-17T09:52:04;12.60;99.90
8947;DHT22;4508;48.790;9.028;2022-09-17T09:54:47;12.50;99.90
8947;DHT22;4508;48.790;9.028;2022-09-17T09:57:19;12.30;99.90
8947;DHT22;4508;48.790;9.028;2022-09-17T09:59:47;12.80;99.90
8947;DHT22;4508;48.790;9.028;2022-09-17T10:02:14;13.90;99.90
8947;DHT22;4508;48.790;9.028;2022-09-17T10:04:42;14.40;99.90
8947;DHT22;4508;48.790;9.028;2022-09-17T10:07:10;14.20;99.90
8947;DHT22;4508;48.790;9.028;2022-09-17T10:09:44;14.30;99.90
8947;DHT22;4508;48.790;9.028;2022-09-17T10:12:15;15.10;99.90
8947;DHT22;4508;48.790;9.028;2022-09-17T10:14:44;14.60;99.90
8947;DHT22;4508;48.790;9.028;2022-09-17T10:17:20;14.80;99.90
8947;DHT22;4508;48.790;9.028;2022-09-17T10:20:13;15.00;99.90
8947;DHT22;4508;48.790;9.028;2022-09-17T10:22:41;15.90;99.90
8947;DHT22;4508;48.790;9.028;2022-09-17T10:25:29;16.40;99.90
8947;DHT22;4508;48.790;9.028;2022-09-17T10:27:58;16.20;99.90
8947;DHT22;4508;48.790;9.028;2022-09-17T10:30:26;15.70;99.90
8947;DHT22;4508;48.790;9.028;2022-09-17T10:33:16;15.80;99.90
8947;DHT22;4508;48.790;9.028;2022-09-17T10:35:56;15.00;99.90
8947;DHT22;4508;48.790;9.028;2022-09-17T10:38:31;14.20;99.90
8947;DHT22;4508;48.790;9.028;2022-09-17T10:41:18;14.20;99.90
8947;DHT22;4508;48.790;9.028;2022-09-17T10:43:46;13.70;99.90
8947;DHT22;4508;48.790;9.028;2022-09-17T10:46:16;14.10;99.90
8947;DHT22;4508;48.790;9.028;2022-09-17T10:48:50;14.10;99.90
8947;DHT22;4508;48.790;9.028;2022-09-17T10:51:24;14.00;99.90
8947;DHT22;4508;48.790;9.028;2022-09-17T10:54:22;14.70;99.90
8947;DHT22;4508;48.790;9.028;2022-09-17T10:56:53;14.60;99.90
8947;DHT22;4508;48.790;9.028;2022-09-17T10:59:45;14.50;99.90
8947;DHT22;4508;48.790;9.028;2022-09-17T11:02:35;14.40;99.90
8947;DHT22;4508;48.790;9.028;2022-09-17T11:05:12;14.40;99.90
8947;DHT22;4508;48.790;9.028;2022-09-17T11:07:46;14.90;99.90
8947;DHT22;4508;48.790;9.028;2022-09-17T11:10:24;15.80;99.90
8947;DHT22;4508;48.790;9.028;2022-09-17T11:13:02;16.20;99.90
8947;DHT22;4508;48.790;9.028;2022-09-17T11:15:44;15.70;99.90
8947;DHT22;4508;48.790;9.028;2022-09-17T11:18:34;15.90;99.90
8947;DHT22;4508;48.790;9.028;2022-09-17T11:21:22;16.30;99.90
8947;DHT22;4508;48.790;9.028;2022-09-17T11:27:08;15.90;99.90
8947;DHT22;4508;48.790;9.028;2022-09-17T11:29:53;16.90;99.90
8947;DHT22;4508;48.790;9.028;2022-09-17T11:32:37;17.40;99.90
8947;DHT22;4508;48.790;9.028;2022-09-17T11:35:09;17.10;99.90
8947;DHT22;4508;48.790;9.028;2022-09-17T11:37:40;17.40;99.90
8947;DHT22;4508;48.790;9.028;2022-09-17T11:40:16;18.40;99.90
8947;DHT22;4508;48.790;9.028;2022-09-17T11:42:48;18.50;99.90
8947;DHT22;4508;48.790;9.028;2022-09-17T11:45:18;18.00;99.90
8947;DHT22;4508;48.790;9.028;2022-09-17T11:47:50;17.70;99.90
8947;DHT22;4508;48.790;9.028;2022-09-17T11:50:21;18.30;99.90
8947;DHT22;4508;48.790;9.028;2022-09-17T11:53:00;17.70;99.90
8947;DHT22;4508;48.790;9.028;2022-09-17T11:55:32;17.40;99.90
8947;DHT22;4508;48.790;9.028;2022-09-17T11:58:13;16.90;99.90
8947;DHT22;4508;48.790;9.028;2022-09-17T12:00:47;17.00;99.90
8947;DHT22;4508;48.790;9.028;2022-09-17T12:03:22;17.20;99.90
8947;DHT22;4508;48.790;9.028;2022-09-17T12:05:52;16.80;99.90
8947;DHT22;4508;48.790;9.028;2022-09-17T12:08:24;16.40;99.90
8947;DHT22;4508;48.790;9.028;2022-09-17T12:11:00;16.00;99.90
8947;DHT22;4508;48.790;9.028;2022-09-17T12:13:34;15.70;99.90
8947;DHT22;4508;48.790;9.028;2022-09-17T12:16:11;15.50;99.90
8947;DHT22;4508;48.790;9.028;2022-09-17T12:18:47;15.30;99.90
8947;DHT22;4508;48.790;9.028;2022-09-17T12:21:18;14.50;99.90
8947;DHT22;4508;48.790;9.028;2022-09-17T12:23:51;14.40;99.90
8947;DHT22;4508;48.790;9.028;2022-09-17T12:26:29;14.70;99.90
8947;DHT22;4508;48.790;9.028;2022-09-17T12:29:04;14.90;99.90
8947;DHT22;4508;48.790;9.028;2022-09-17T12:31:39;15.00;99.90
8947;DHT22;4508;48.790;9.028;2022-09-17T12:34:21;14.60;99.90
8947;DHT22;4508;48.790;9.028;2022-09-17T12:36:57;14.40;99.90
8947;DHT22;4508;48.790;9.028;2022-09-17T12:42:57;13.10;99.90
8947;DHT22;4508;48.790;9.028;2022-09-17T12:45:56;12.50;99.90
8947;DHT22;4508;48.790;9.028;2022-09-17T12:48:44;12.20;99.90
8947;DHT22;4508;48.790;9.028;2022-09-17T12:51:29;11.70;99.90
8947;DHT22;4508;48.790;9.028;2022-09-17T12:54:13;11.80;99.90
8947;DHT22;4508;48.790;9.028;2022-09-17T12:56:49;11.50;99.90
8947;DHT22;4508;48.790;9.028;2022-09-17T12:59:21;11.50;99.90
8947;DHT22;4508;48.790;9.028;2022-09-17T13:01:56;11.40;99.90
8947;DHT22;4508;48.790;9.028;2022-09-17T13:07:38;10.90;99.90
8947;DHT22;4508;48.790;9.028;2022-09-17T13:10:29;11.00;99.90
8947;DHT22;4508;48.790;9.028;2022-09-17T13:13:19;11.00;99.90
8947;DHT22;4508;48.790;9.028;2022-09-17T13:15:56;11.00;99.90
8947;DHT22;4508;48.790;9.028;2022-09-17T13:18:32;11.00;99.90
8947;DHT22;4508;48.790;9.028;2022-09-17T13:21:05;11.00;99.90
8947;DHT22;4508;48.790;9.028;2022-09-17T13:23:37;11.00;99.90
8947;DHT22;4508;48.790;9.028;2022-09-17T13:26:06;11.40;99.90
8947;DHT22;4508;48.790;9.028;2022-09-17T13:28:38;11.80;99.90
8947;DHT22;4508;48.790;9.028;2022-09-17T13:31:05;12.10;99.90
8947;DHT22;4508;48.790;9.028;2022-09-17T13:33:54;12.20;99.90
8947;DHT22;4508;48.790;9.028;2022-09-17T13:36:46;12.50;99.90
8947;DHT22;4508;48.790;9.028;2022-09-17T13:39:35;13.10;99.90
8947;DHT22;4508;48.790;9.028;2022-09-17T13:42:05;13.50;99.90
8947;DHT22;4508;48.790;9.028;2022-09-17T13:44:35;13.60;99.90
8947;DHT22;4508;48.790;9.028;2022-09-17T13:47:16;13.70;99.90
8947;DHT22;4508;48.790;9.028;2022-09-17T13:49:48;13.40;99.90
8947;DHT22;4508;48.790;9.028;2022-09-17T13:52:37;13.50;99.90
8947;DHT22;4508;48.790;9.028;2022-09-17T13:55:06;13.90;99.90
8947;DHT22;4508;48.790;9.028;2022-09-17T13:57:44;14.40;99.90
8947;DHT22;4508;48.790;9.028;2022-09-17T14:03:50;14.40;99.90
8947;DHT22;4508;48.790;9.028;2022-09-17T14:06:50;14.50;99.90
8947;DHT22;4508;48.790;9.028;2022-09-17T14:09:34;15.20;99.90
8947;DHT22;4508;48.790;9.028;2022-09-17T14:12:52;15.00;99.90
8947;DHT22;4508;48.790;9.028;2022-09-17T14:15:35;14.60;99.90
8947;DHT22;4508;48.790;9.028;2022-09-17T14:18:37;14.80;99.90
8947;DHT22;4508;48.790;9.028;2022-09-17T14:21:18;14.50;99.90
8947;DHT22;4508;48.790;9.028;2022-09-17T14:23:55;14.40;99.90
8947;DHT22;4508;48.790;9.028;2022-09-17T14:26:35;15.10;99.90
8947;DHT22;4508;48.790;9.028;2022-09-17T14:29:10;15.20;99.90
8947;DHT22;4508;48.790;9.028;2022-09-17T14:31:41;15.50;99.90
8947;DHT22;4508;48.790;9.028;2022-09-17T14:34:20;15.40;99.90
8947;DHT22;4508;48.790;9.028;2022-09-17T14:36:49;15.00;99.90
8947;DHT22;4508;48.790;9.028;2022-09-17T14:39:21;14.50;99.90
8947;DHT22;4508;48.790;9.028;2022-09-17T14:41:49;14.30;99.90
8947;DHT22;4508;48.790;9.028;2022-09-17T14:44:19;13.90;99.90
8947;DHT22;4508;48.790;9.028;2022-09-17T14:46:51;14.00;99.90
8947;DHT22;4508;48.790;9.028;2022-09-17T14:49:20;14.50;99.90
8947;DHT22;4508;48.790;9.028;2022-09-17T14:51:48;14.70;99.90
8947;DHT22;4508;48.790;9.028;2022-09-17T14:54:18;14.60;99.90
8947;DHT22;4508;48.790;9.028;2022-09-17T14:56:57;14.90;99.90
8947;DHT22;4508;48.790;9.028;2022-09-17T14:59:45;15.00;99.90
8947;DHT22;4508;48.790;9.028;2022-09-17T15:02:22;15.30;99.90
8947;DHT22;4508;48.790;9.028;2022-09-17T15:04:52;15.10;99.90
8947;DHT22;4508;48.790;9.028;2022-09-17T15:07:20;14.50;99.90
8947;DHT22;4508;48.790;9.028;2022-09-17T15:09:48;14.20;99.90
8947;DHT22;4508;48.790;9.028;2022-09-17T15:12:21;14.00;99.90
8947;DHT22;4508;48.790;9.028;2022-09-17T15:14:51;13.90;99.90
8947;DHT22;4508;48.790;9.028;2022-09-17T15:17:19;13.70;99.90
8947;DHT22;4508;48.790;9.028;2022-09-17T15:19:49;13.60;99.90
8947;DHT22;4508;48.790;9.028;2022-09-17T15:22:20;13.50;99.90
8947;DHT22;4508;48.790;9.028;2022-09-17T15:24:51;13.30;99.90
8947;DHT22;4508;48.790;9.028;2022-09-17T15:27:22;13.40;99.90
8947;DHT22;4508;48.790;9.028;2022-09-17T15:29:52;13.20;99.90
8947;DHT22;4508;48.790;9.028;2022-09-17T15:32:19;13.10;99.90
8947;DHT22;4508;48.790;9.028;2022-09-17T15:35:16;13.30;99.90
8947;DHT22;4508;48.790;9.028;2022-09-17T15:37:44;13.60;99.90
8947;DHT22;4508;48.790;9.028;2022-09-17T15:40:14;13.50;99.90
8947;DHT22;4508;48.790;9.028;2022-09-17T15:42:47;13.50;99.90
8947;DHT22;4508;48.790;9.028;2022-09-17T15:45:17;13.70;99.90
8947;DHT22;4508;48.790;9.028;2022-09-17T15:47:55;13.90;99.90
8947;DHT22;4508;48.790;9.028;2022-09-17T15:50:23;13.90;99.90
8947;DHT22;4508;48.790;9.028;2022-09-17T15:52:57;13.70;99.90
8947;DHT22;4508;48.790;9.028;2022-09-17T15:55:31;13.60;99.90
8947;DHT22;4508;48.790;9.028;2022-09-17T15:57:59;13.30;99.90
8947;DHT22;4508;48.790;9.028;2022-09-17T16:00:26;13.10;99.90
8947;DHT22;4508;48.790;9.028;2022-09-17T16:02:53;13.00;99.90
8947;DHT22;4508;48.790;9.028;2022-09-17T16:08:18;12.80;99.90
8947;DHT22;4508;48.790;9.028;2022-09-17T16:10:46;12.80;99.90
8947;DHT22;4508;48.790;9.028;2022-09-17T16:13:13;12.70;99.90
8947;DHT22;4508;48.790;9.028;2022-09-17T16:15:40;12.80;99.90
8947;DHT22;4508;48.790;9.028;2022-09-17T16:18:11;12.80;99.90
8947;DHT22;4508;48.790;9.028;2022-09-17T16:20:38;12.90;99.90
8947;DHT22;4508;48.790;9.028;2022-09-17T16:23:04;12.90;99.90
8947;DHT22;4508;48.790;9.028;2022-09-17T16:25:31;12.90;99.90
8947;DHT22;4508;48.790;9.028;2022-09-17T16:28:02;12.90;99.90
8947;DHT22;4508;48.790;9.028;2022-09-17T16:30:29;12.80;99.90
8947;DHT22;4508;48.790;9.028;2022-09-17T16:32:56;12.60;99.90
8947;DHT22;4508;48.790;9.028;2022-09-17T16:35:24;12.50;99.90
8947;DHT22;4508;48.790;9.028;2022-09-17T16:37:52;12.30;99.90
8947;DHT22;4508;48.790;9.028;2022-09-17T16:40:21;12.30;99.90
8947;DHT22;4508;48.790;9.028;2022-09-17T16:42:49;12.30;99.90
8947;DHT22;4508;48.790;9.028;2022-09-17T16:45:17;12.20;99.90
8947;DHT22;4508;48.790;9.028;2022-09-17T16:47:45;12.10;99.90
8947;DHT22;4508;48.790;9.028;2022-09-17T16:50:13;12.10;99.90
8947;DHT22;4508;48.790;9.028;2022-09-17T16:52:40;12.00;99.90
8947;DHT22;4508;48.790;9.028;2022-09-17T16:55:08;12.00;99.90
8947;DHT22;4508;48.790;9.028;2022-09-17T16:57:35;12.00;99.90
8947;DHT22;4508;48.790;9.028;2022-09-17T17:00:03;11.90;99.90